This is the latest recevied weather packets stored in our database for station/object Wangen. If no packets are shown the sender has not sent any weather packets the latest 10 day(s).
| Time | Temp. | Humidity | Pressure | Rain* | Wind** | Luminosity | Snow |
|---|---|---|---|---|---|---|---|
| 1777809730 | 23.33° C | 36% | 1012.1 hPa | 0 mm | - | - | - |
| 1777807932 | 23.33° C | 37% | 1012.3 hPa | 0 mm | - | - | - |
| 1777806130 | 22.22° C | 38% | 1012.5 hPa | 0 mm | - | - | - |
| 1777804332 | 22.22° C | 42% | 1013 hPa | 0 mm | - | - | - |
| 1777802532 | 21.11° C | 44% | 1013.3 hPa | 0 mm | - | - | - |
| 1777800731 | 20.56° C | 46% | 1013.5 hPa | 0 mm | - | - | - |
| 1777798930 | 20° C | 46% | 1013.7 hPa | 0 mm | - | - | - |
| 1777797132 | 20° C | 43% | 1013.9 hPa | 0 mm | - | - | - |
| 1777795332 | 19.44° C | 43% | 1013.8 hPa | 0 mm | - | - | - |
| 1777793531 | 18.33° C | 47% | 1013.7 hPa | 0 mm | - | - | - |
| 1777791731 | 16.67° C | 58% | 1013.9 hPa | 0 mm | - | - | - |
| 1777789931 | 13.89° C | 69% | 1013.9 hPa | 0 mm | - | - | - |
| 1777788131 | 11.67° C | 74% | 1013.9 hPa | 0 mm | - | - | - |
| 1777786331 | 9.44° C | 81% | 1014.1 hPa | 0 mm | - | - | - |
| 1777784533 | 8.33° C | 83% | 1014.3 hPa | 0 mm | - | - | - |
| 1777782731 | 8.33° C | 84% | 1014.3 hPa | 0 mm | - | - | - |
| 1777780930 | 8.33° C | 84% | 1014.4 hPa | 0 mm | - | - | - |
| 1777779131 | 8.89° C | 83% | 1014.4 hPa | 0 mm | - | - | - |
| 1777777331 | 8.89° C | 82% | 1014.4 hPa | 0 mm | - | - | - |
| 1777775531 | 9.44° C | 81% | 1014.6 hPa | 0 mm | - | - | - |
| 1777773731 | 9.44° C | 81% | 1014.7 hPa | 0 mm | - | - | - |
| 1777771932 | 10° C | 80% | 1014.7 hPa | 0 mm | - | - | - |
| 1777770132 | 10.56° C | 79% | 1014.8 hPa | 0 mm | - | - | - |
| 1777768329 | 11.11° C | 76% | 1014.7 hPa | 0 mm | - | - | - |
| 1777766530 | 11.11° C | 75% | 1014.7 hPa | 0 mm | - | - | - |
* Rain since midnight (hover to see other rain measurements)
** Current wind speed in m/s (hover to see current wind gust speed)